sensor_id;sensor_type;location;lat;lon;timestamp;temperature;humidity
44607;DHT22;30315;46.072;14.474;2022-09-09T00:01:21;21.80;94.70
44607;DHT22;30315;46.072;14.474;2022-09-09T00:03:57;21.80;94.90
44607;DHT22;30315;46.072;14.474;2022-09-09T00:06:33;21.70;94.80
44607;DHT22;30315;46.072;14.474;2022-09-09T00:14:03;21.70;94.90
44607;DHT22;30315;46.072;14.474;2022-09-09T00:16:35;21.80;94.90
44607;DHT22;30315;46.072;14.474;2022-09-09T00:21:35;21.80;95.10
44607;DHT22;30315;46.072;14.474;2022-09-09T00:24:23;21.80;95.20
44607;DHT22;30315;46.072;14.474;2022-09-09T00:26:53;21.80;95.10
44607;DHT22;30315;46.072;14.474;2022-09-09T00:29:43;21.80;95.20
44607;DHT22;30315;46.072;14.474;2022-09-09T00:32:13;21.80;95.40
44607;DHT22;30315;46.072;14.474;2022-09-09T00:35:03;21.80;95.30
44607;DHT22;30315;46.072;14.474;2022-09-09T00:37:28;21.80;95.30
44607;DHT22;30315;46.072;14.474;2022-09-09T00:39:59;21.80;95.10
44607;DHT22;30315;46.072;14.474;2022-09-09T00:42:40;21.80;95.10
44607;DHT22;30315;46.072;14.474;2022-09-09T00:47:54;21.80;95.20
44607;DHT22;30315;46.072;14.474;2022-09-09T00:56:13;21.80;95.20
44607;DHT22;30315;46.072;14.474;2022-09-09T00:58:42;21.80;95.30
44607;DHT22;30315;46.072;14.474;2022-09-09T01:01:11;21.70;95.20
44607;DHT22;30315;46.072;14.474;2022-09-09T01:03:56;21.80;95.30
44607;DHT22;30315;46.072;14.474;2022-09-09T01:06:37;21.70;95.20
44607;DHT22;30315;46.072;14.474;2022-09-09T01:12:07;21.80;95.30
44607;DHT22;30315;46.072;14.474;2022-09-09T01:22:47;21.70;95.50
44607;DHT22;30315;46.072;14.474;2022-09-09T01:28:11;21.80;95.80
44607;DHT22;30315;46.072;14.474;2022-09-09T01:30:40;21.80;95.80
44607;DHT22;30315;46.072;14.474;2022-09-09T01:33:15;21.80;95.90
44607;DHT22;30315;46.072;14.474;2022-09-09T01:38:09;21.40;96.00
44607;DHT22;30315;46.072;14.474;2022-09-09T01:40:37;21.80;95.90
44607;DHT22;30315;46.072;14.474;2022-09-09T01:43:04;21.80;95.90
44607;DHT22;30315;46.072;14.474;2022-09-09T01:45:34;21.80;96.00
44607;DHT22;30315;46.072;14.474;2022-09-09T01:48:01;21.80;96.00
44607;DHT22;30315;46.072;14.474;2022-09-09T01:50:42;21.80;96.00
44607;DHT22;30315;46.072;14.474;2022-09-09T01:53:09;21.80;95.80
44607;DHT22;30315;46.072;14.474;2022-09-09T01:55:40;21.70;95.80
44607;DHT22;30315;46.072;14.474;2022-09-09T02:00:56;21.80;96.00
44607;DHT22;30315;46.072;14.474;2022-09-09T02:03:28;21.80;96.00
44607;DHT22;30315;46.072;14.474;2022-09-09T02:06:44;21.80;96.00
44607;DHT22;30315;46.072;14.474;2022-09-09T02:08:56;21.80;96.00
44607;DHT22;30315;46.072;14.474;2022-09-09T02:11:27;21.80;96.00
44607;DHT22;30315;46.072;14.474;2022-09-09T02:17:03;21.80;95.90
44607;DHT22;30315;46.072;14.474;2022-09-09T02:19:53;21.80;95.90
44607;DHT22;30315;46.072;14.474;2022-09-09T02:22:33;21.80;96.00
44607;DHT22;30315;46.072;14.474;2022-09-09T02:25:02;22.10;96.10
44607;DHT22;30315;46.072;14.474;2022-09-09T02:27:33;21.80;95.90
44607;DHT22;30315;46.072;14.474;2022-09-09T02:30:02;21.80;95.90
44607;DHT22;30315;46.072;14.474;2022-09-09T02:32:48;21.80;95.90
44607;DHT22;30315;46.072;14.474;2022-09-09T02:35:19;21.80;95.90
44607;DHT22;30315;46.072;14.474;2022-09-09T02:37:47;21.80;95.80
44607;DHT22;30315;46.072;14.474;2022-09-09T02:40:16;21.70;95.80
44607;DHT22;30315;46.072;14.474;2022-09-09T02:42:53;21.80;95.70
44607;DHT22;30315;46.072;14.474;2022-09-09T02:45:25;21.90;95.70
44607;DHT22;30315;46.072;14.474;2022-09-09T02:50:35;21.80;95.50
44607;DHT22;30315;46.072;14.474;2022-09-09T02:55:50;21.80;95.30
44607;DHT22;30315;46.072;14.474;2022-09-09T02:58:20;21.80;95.50
44607;DHT22;30315;46.072;14.474;2022-09-09T03:00:58;21.80;95.50
44607;DHT22;30315;46.072;14.474;2022-09-09T03:03:28;21.80;95.60
44607;DHT22;30315;46.072;14.474;2022-09-09T03:05:58;21.80;95.70
44607;DHT22;30315;46.072;14.474;2022-09-09T03:08:26;21.70;95.70
44607;DHT22;30315;46.072;14.474;2022-09-09T03:10:57;21.80;95.80
44607;DHT22;30315;46.072;14.474;2022-09-09T03:13:26;21.80;95.80
44607;DHT22;30315;46.072;14.474;2022-09-09T03:15:53;21.70;95.80
44607;DHT22;30315;46.072;14.474;2022-09-09T03:18:20;21.80;95.70
44607;DHT22;30315;46.072;14.474;2022-09-09T03:20:50;21.70;95.70
44607;DHT22;30315;46.072;14.474;2022-09-09T03:23:19;21.80;95.90
44607;DHT22;30315;46.072;14.474;2022-09-09T03:25:48;21.70;95.80
44607;DHT22;30315;46.072;14.474;2022-09-09T03:28:19;21.80;95.80
44607;DHT22;30315;46.072;14.474;2022-09-09T03:30:48;21.70;95.80
44607;DHT22;30315;46.072;14.474;2022-09-09T03:33:15;21.80;95.80
44607;DHT22;30315;46.072;14.474;2022-09-09T03:35:45;21.70;95.80
44607;DHT22;30315;46.072;14.474;2022-09-09T03:38:16;21.70;95.70
44607;DHT22;30315;46.072;14.474;2022-09-09T03:40:53;21.70;95.60
44607;DHT22;30315;46.072;14.474;2022-09-09T03:43:23;21.70;95.60
44607;DHT22;30315;46.072;14.474;2022-09-09T03:45:51;21.70;95.60
44607;DHT22;30315;46.072;14.474;2022-09-09T03:48:19;21.70;95.60
44607;DHT22;30315;46.072;14.474;2022-09-09T03:50:47;21.70;95.50
44607;DHT22;30315;46.072;14.474;2022-09-09T03:53:14;21.60;95.50
44607;DHT22;30315;46.072;14.474;2022-09-09T03:55:48;21.60;95.60
44607;DHT22;30315;46.072;14.474;2022-09-09T03:58:16;21.60;95.60
44607;DHT22;30315;46.072;14.474;2022-09-09T04:00:56;21.60;95.70
44607;DHT22;30315;46.072;14.474;2022-09-09T04:03:25;21.60;95.60
44607;DHT22;30315;46.072;14.474;2022-09-09T04:05:55;21.60;95.60
44607;DHT22;30315;46.072;14.474;2022-09-09T04:08:24;21.60;95.50
44607;DHT22;30315;46.072;14.474;2022-09-09T04:10:54;21.60;95.40
44607;DHT22;30315;46.072;14.474;2022-09-09T04:13:24;21.60;95.50
44607;DHT22;30315;46.072;14.474;2022-09-09T04:15:55;21.50;95.50
44607;DHT22;30315;46.072;14.474;2022-09-09T04:18:22;21.50;95.60
44607;DHT22;30315;46.072;14.474;2022-09-09T04:20:50;21.60;95.60
44607;DHT22;30315;46.072;14.474;2022-09-09T04:23:20;21.50;95.50
44607;DHT22;30315;46.072;14.474;2022-09-09T04:25:49;21.60;95.70
44607;DHT22;30315;46.072;14.474;2022-09-09T04:28:17;21.60;95.70
44607;DHT22;30315;46.072;14.474;2022-09-09T04:30:45;21.60;95.80
44607;DHT22;30315;46.072;14.474;2022-09-09T04:33:13;21.50;95.70
44607;DHT22;30315;46.072;14.474;2022-09-09T04:35:57;21.60;95.80
44607;DHT22;30315;46.072;14.474;2022-09-09T04:38:25;21.60;95.80
44607;DHT22;30315;46.072;14.474;2022-09-09T04:40:54;21.50;95.80
44607;DHT22;30315;46.072;14.474;2022-09-09T04:43:21;21.50;95.80
44607;DHT22;30315;46.072;14.474;2022-09-09T04:45:50;21.50;95.70
44607;DHT22;30315;46.072;14.474;2022-09-09T04:48:20;21.50;95.60
44607;DHT22;30315;46.072;14.474;2022-09-09T04:50:58;21.60;95.70
44607;DHT22;30315;46.072;14.474;2022-09-09T04:53:26;21.60;95.70
44607;DHT22;30315;46.072;14.474;2022-09-09T04:56:10;21.60;95.70
44607;DHT22;30315;46.072;14.474;2022-09-09T04:58:45;21.60;95.70
44607;DHT22;30315;46.072;14.474;2022-09-09T05:01:20;21.50;95.60
44607;DHT22;30315;46.072;14.474;2022-09-09T05:03:50;21.60;95.60
44607;DHT22;30315;46.072;14.474;2022-09-09T05:06:21;21.60;95.60
44607;DHT22;30315;46.072;14.474;2022-09-09T05:08:52;21.60;95.50
44607;DHT22;30315;46.072;14.474;2022-09-09T05:13:53;21.60;95.40
44607;DHT22;30315;46.072;14.474;2022-09-09T05:16:20;21.60;95.50
44607;DHT22;30315;46.072;14.474;2022-09-09T05:18:47;21.60;95.50
44607;DHT22;30315;46.072;14.474;2022-09-09T05:21:16;21.60;95.30
44607;DHT22;30315;46.072;14.474;2022-09-09T05:23:44;21.70;95.20
44607;DHT22;30315;46.072;14.474;2022-09-09T05:26:13;21.80;95.10
44607;DHT22;30315;46.072;14.474;2022-09-09T05:28:45;21.70;94.90
44607;DHT22;30315;46.072;14.474;2022-09-09T05:31:14;21.70;95.00
44607;DHT22;30315;46.072;14.474;2022-09-09T05:33:43;21.80;94.90
44607;DHT22;30315;46.072;14.474;2022-09-09T05:36:10;21.80;94.80
44607;DHT22;30315;46.072;14.474;2022-09-09T05:38:40;21.80;94.70
44607;DHT22;30315;46.072;14.474;2022-09-09T05:41:08;21.80;94.70
44607;DHT22;30315;46.072;14.474;2022-09-09T05:43:34;21.70;94.50
44607;DHT22;30315;46.072;14.474;2022-09-09T05:46:06;21.80;94.30
44607;DHT22;30315;46.072;14.474;2022-09-09T05:48:34;21.80;94.30
44607;DHT22;30315;46.072;14.474;2022-09-09T05:51:02;22.00;94.20
44607;DHT22;30315;46.072;14.474;2022-09-09T05:53:33;21.80;94.10
44607;DHT22;30315;46.072;14.474;2022-09-09T05:56:04;21.80;94.00
44607;DHT22;30315;46.072;14.474;2022-09-09T05:58:33;21.40;93.70
44607;DHT22;30315;46.072;14.474;2022-09-09T06:01:07;21.80;93.80
44607;DHT22;30315;46.072;14.474;2022-09-09T06:03:35;21.80;93.60
44607;DHT22;30315;46.072;14.474;2022-09-09T06:06:03;21.90;93.50
44607;DHT22;30315;46.072;14.474;2022-09-09T06:08:33;21.80;93.40
44607;DHT22;30315;46.072;14.474;2022-09-09T06:11:03;21.90;93.10
44607;DHT22;30315;46.072;14.474;2022-09-09T06:13:30;21.80;92.50
44607;DHT22;30315;46.072;14.474;2022-09-09T06:15:58;21.80;92.20
44607;DHT22;30315;46.072;14.474;2022-09-09T06:18:26;21.70;92.10
44607;DHT22;30315;46.072;14.474;2022-09-09T06:20:54;21.70;92.00
44607;DHT22;30315;46.072;14.474;2022-09-09T06:23:21;21.80;92.00
44607;DHT22;30315;46.072;14.474;2022-09-09T06:25:47;21.70;92.10
44607;DHT22;30315;46.072;14.474;2022-09-09T06:28:15;21.80;92.20
44607;DHT22;30315;46.072;14.474;2022-09-09T06:30:42;21.70;92.30
44607;DHT22;30315;46.072;14.474;2022-09-09T06:33:09;21.50;92.40
44607;DHT22;30315;46.072;14.474;2022-09-09T06:35:37;21.80;92.80
44607;DHT22;30315;46.072;14.474;2022-09-09T06:38:07;21.90;92.80
44607;DHT22;30315;46.072;14.474;2022-09-09T06:40:41;21.60;92.40
44607;DHT22;30315;46.072;14.474;2022-09-09T06:43:09;22.30;92.60
44607;DHT22;30315;46.072;14.474;2022-09-09T06:46:07;21.90;92.30
44607;DHT22;30315;46.072;14.474;2022-09-09T06:48:35;22.00;92.30
44607;DHT22;30315;46.072;14.474;2022-09-09T06:51:12;22.00;92.10
44607;DHT22;30315;46.072;14.474;2022-09-09T06:53:42;22.00;92.20
44607;DHT22;30315;46.072;14.474;2022-09-09T06:59:01;22.10;91.90
44607;DHT22;30315;46.072;14.474;2022-09-09T07:01:41;21.80;91.90
44607;DHT22;30315;46.072;14.474;2022-09-09T07:04:12;22.10;91.60
44607;DHT22;30315;46.072;14.474;2022-09-09T07:06:43;22.10;91.40
44607;DHT22;30315;46.072;14.474;2022-09-09T07:09:15;21.80;91.40
44607;DHT22;30315;46.072;14.474;2022-09-09T07:11:50;22.10;91.60
44607;DHT22;30315;46.072;14.474;2022-09-09T07:14:21;22.10;91.40
44607;DHT22;30315;46.072;14.474;2022-09-09T07:16:56;22.20;91.80
44607;DHT22;30315;46.072;14.474;2022-09-09T07:19:28;22.30;91.70
44607;DHT22;30315;46.072;14.474;2022-09-09T07:21:55;22.30;91.30
44607;DHT22;30315;46.072;14.474;2022-09-09T07:24:24;22.30;91.20
44607;DHT22;30315;46.072;14.474;2022-09-09T07:26:51;22.10;91.00
44607;DHT22;30315;46.072;14.474;2022-09-09T07:29:20;22.40;91.00
44607;DHT22;30315;46.072;14.474;2022-09-09T07:31:49;22.40;91.30
44607;DHT22;30315;46.072;14.474;2022-09-09T07:34:22;22.40;90.80
44607;DHT22;30315;46.072;14.474;2022-09-09T07:36:50;22.40;90.90
44607;DHT22;30315;46.072;14.474;2022-09-09T07:39:18;22.50;91.00
44607;DHT22;30315;46.072;14.474;2022-09-09T07:41:49;22.50;90.90
44607;DHT22;30315;46.072;14.474;2022-09-09T07:44:23;22.50;90.90
44607;DHT22;30315;46.072;14.474;2022-09-09T07:47:07;22.50;90.80
44607;DHT22;30315;46.072;14.474;2022-09-09T07:49:45;22.60;90.60
44607;DHT22;30315;46.072;14.474;2022-09-09T07:52:18;22.60;90.10
44607;DHT22;30315;46.072;14.474;2022-09-09T07:54:54;22.60;89.80
44607;DHT22;30315;46.072;14.474;2022-09-09T07:57:23;22.70;89.90
44607;DHT22;30315;46.072;14.474;2022-09-09T07:59:54;22.70;89.90
44607;DHT22;30315;46.072;14.474;2022-09-09T08:02:21;22.70;89.90
44607;DHT22;30315;46.072;14.474;2022-09-09T08:04:52;22.70;90.00
44607;DHT22;30315;46.072;14.474;2022-09-09T08:07:22;22.70;89.80
44607;DHT22;30315;46.072;14.474;2022-09-09T08:09:53;22.70;89.00
44607;DHT22;30315;46.072;14.474;2022-09-09T08:12:25;22.30;88.70
44607;DHT22;30315;46.072;14.474;2022-09-09T08:14:52;22.70;89.30
44607;DHT22;30315;46.072;14.474;2022-09-09T08:17:24;22.70;88.60
44607;DHT22;30315;46.072;14.474;2022-09-09T08:19:54;22.70;88.20
44607;DHT22;30315;46.072;14.474;2022-09-09T08:22:26;22.30;88.00
44607;DHT22;30315;46.072;14.474;2022-09-09T08:24:55;23.00;88.30
44607;DHT22;30315;46.072;14.474;2022-09-09T08:27:23;22.80;87.20
44607;DHT22;30315;46.072;14.474;2022-09-09T08:29:53;22.80;85.90
44607;DHT22;30315;46.072;14.474;2022-09-09T08:32:23;22.80;84.80
44607;DHT22;30315;46.072;14.474;2022-09-09T08:34:51;22.80;84.10
44607;DHT22;30315;46.072;14.474;2022-09-09T08:37:27;22.80;84.70
44607;DHT22;30315;46.072;14.474;2022-09-09T08:39:59;22.80;84.80
44607;DHT22;30315;46.072;14.474;2022-09-09T08:42:35;22.80;84.70
44607;DHT22;30315;46.072;14.474;2022-09-09T08:45:19;22.80;85.00
44607;DHT22;30315;46.072;14.474;2022-09-09T08:48:05;22.80;85.30
44607;DHT22;30315;46.072;14.474;2022-09-09T08:50:36;22.80;85.10
44607;DHT22;30315;46.072;14.474;2022-09-09T08:53:17;22.80;83.10
44607;DHT22;30315;46.072;14.474;2022-09-09T08:55:48;22.70;83.40
44607;DHT22;30315;46.072;14.474;2022-09-09T08:58:19;22.70;83.20
44607;DHT22;30315;46.072;14.474;2022-09-09T09:01:02;22.70;83.60
44607;DHT22;30315;46.072;14.474;2022-09-09T09:11:12;22.70;83.60
44607;DHT22;30315;46.072;14.474;2022-09-09T09:13:44;22.60;82.90
44607;DHT22;30315;46.072;14.474;2022-09-09T09:18:59;22.70;82.50
44607;DHT22;30315;46.072;14.474;2022-09-09T09:21:36;22.70;82.20
44607;DHT22;30315;46.072;14.474;2022-09-09T09:24:09;22.80;82.10
44607;DHT22;30315;46.072;14.474;2022-09-09T09:26:39;22.80;81.90
44607;DHT22;30315;46.072;14.474;2022-09-09T09:29:11;22.80;82.00
44607;DHT22;30315;46.072;14.474;2022-09-09T09:31:41;22.80;81.30
44607;DHT22;30315;46.072;14.474;2022-09-09T09:34:09;22.80;81.50
44607;DHT22;30315;46.072;14.474;2022-09-09T09:36:43;22.80;81.80
44607;DHT22;30315;46.072;14.474;2022-09-09T09:42:11;22.80;82.40
44607;DHT22;30315;46.072;14.474;2022-09-09T09:44:43;22.80;82.60
44607;DHT22;30315;46.072;14.474;2022-09-09T09:47:15;22.80;82.60
44607;DHT22;30315;46.072;14.474;2022-09-09T09:49:55;22.90;82.30
44607;DHT22;30315;46.072;14.474;2022-09-09T09:52:27;22.80;82.10
44607;DHT22;30315;46.072;14.474;2022-09-09T09:54:56;22.90;82.80
44607;DHT22;30315;46.072;14.474;2022-09-09T09:57:28;22.90;82.70
44607;DHT22;30315;46.072;14.474;2022-09-09T10:00:12;23.00;82.40
44607;DHT22;30315;46.072;14.474;2022-09-09T10:02:40;22.90;82.20
44607;DHT22;30315;46.072;14.474;2022-09-09T10:05:16;22.90;82.10
44607;DHT22;30315;46.072;14.474;2022-09-09T10:24:10;22.90;81.90
44607;DHT22;30315;46.072;14.474;2022-09-09T10:32:11;22.80;82.40
44607;DHT22;30315;46.072;14.474;2022-09-09T10:34:56;22.80;83.20
44607;DHT22;30315;46.072;14.474;2022-09-09T10:39:54;22.80;82.50
44607;DHT22;30315;46.072;14.474;2022-09-09T10:42:27;22.80;82.00
44607;DHT22;30315;46.072;14.474;2022-09-09T10:48:01;22.70;83.30
44607;DHT22;30315;46.072;14.474;2022-09-09T10:50:40;22.70;85.10
44607;DHT22;30315;46.072;14.474;2022-09-09T10:53:35;22.70;85.80
44607;DHT22;30315;46.072;14.474;2022-09-09T10:56:06;22.60;86.70
44607;DHT22;30315;46.072;14.474;2022-09-09T11:01:15;22.60;88.50
44607;DHT22;30315;46.072;14.474;2022-09-09T11:03:44;22.50;88.10
44607;DHT22;30315;46.072;14.474;2022-09-09T11:06:16;22.40;87.00
44607;DHT22;30315;46.072;14.474;2022-09-09T11:08:44;22.30;87.20
44607;DHT22;30315;46.072;14.474;2022-09-09T11:13:58;22.30;87.30
44607;DHT22;30315;46.072;14.474;2022-09-09T11:19:17;22.10;88.50
44607;DHT22;30315;46.072;14.474;2022-09-09T11:21:46;22.00;88.40
44607;DHT22;30315;46.072;14.474;2022-09-09T11:24:15;22.00;88.90
44607;DHT22;30315;46.072;14.474;2022-09-09T11:26:46;22.00;89.80
44607;DHT22;30315;46.072;14.474;2022-09-09T11:34:50;21.90;91.20
44607;DHT22;30315;46.072;14.474;2022-09-09T11:42:24;21.80;92.80
44607;DHT22;30315;46.072;14.474;2022-09-09T11:44:51;21.90;93.10
44607;DHT22;30315;46.072;14.474;2022-09-09T11:47:29;21.90;93.50
44607;DHT22;30315;46.072;14.474;2022-09-09T11:52:43;21.90;93.90
44607;DHT22;30315;46.072;14.474;2022-09-09T11:55:27;21.90;93.70
44607;DHT22;30315;46.072;14.474;2022-09-09T11:57:59;21.90;93.70
44607;DHT22;30315;46.072;14.474;2022-09-09T12:00:28;21.60;93.80
44607;DHT22;30315;46.072;14.474;2022-09-09T12:02:57;21.90;93.80
44607;DHT22;30315;46.072;14.474;2022-09-09T12:05:34;21.50;93.50
44607;DHT22;30315;46.072;14.474;2022-09-09T12:08:02;21.90;94.00
44607;DHT22;30315;46.072;14.474;2022-09-09T12:10:30;21.90;94.10
44607;DHT22;30315;46.072;14.474;2022-09-09T12:13:16;21.90;94.30
44607;DHT22;30315;46.072;14.474;2022-09-09T12:15:47;22.00;94.10
44607;DHT22;30315;46.072;14.474;2022-09-09T12:18:18;22.10;93.80
44607;DHT22;30315;46.072;14.474;2022-09-09T12:31:59;22.10;94.10
44607;DHT22;30315;46.072;14.474;2022-09-09T12:34:13;22.10;94.40
44607;DHT22;30315;46.072;14.474;2022-09-09T12:36:41;22.10;94.40
44607;DHT22;30315;46.072;14.474;2022-09-09T12:39:29;22.10;94.50
44607;DHT22;30315;46.072;14.474;2022-09-09T12:41:58;22.10;94.50
44607;DHT22;30315;46.072;14.474;2022-09-09T12:44:25;22.20;94.80
44607;DHT22;30315;46.072;14.474;2022-09-09T12:46:54;22.00;94.90
44607;DHT22;30315;46.072;14.474;2022-09-09T12:49:26;22.30;95.10
44607;DHT22;30315;46.072;14.474;2022-09-09T12:51:53;22.40;95.10
44607;DHT22;30315;46.072;14.474;2022-09-09T12:54:20;22.50;95.10
44607;DHT22;30315;46.072;14.474;2022-09-09T12:56:47;22.50;95.20
44607;DHT22;30315;46.072;14.474;2022-09-09T13:00:03;22.60;94.60
44607;DHT22;30315;46.072;14.474;2022-09-09T13:02:11;22.70;94.50
44607;DHT22;30315;46.072;14.474;2022-09-09T13:04:43;22.70;94.30
44607;DHT22;30315;46.072;14.474;2022-09-09T13:07:10;22.70;94.30
44607;DHT22;30315;46.072;14.474;2022-09-09T13:09:39;22.80;93.90
44607;DHT22;30315;46.072;14.474;2022-09-09T13:12:06;22.70;93.40
44607;DHT22;30315;46.072;14.474;2022-09-09T13:14:39;22.70;93.40
44607;DHT22;30315;46.072;14.474;2022-09-09T13:20:15;22.70;93.20
44607;DHT22;30315;46.072;14.474;2022-09-09T13:22:43;22.70;93.50
44607;DHT22;30315;46.072;14.474;2022-09-09T13:27:38;23.00;94.70
44607;DHT22;30315;46.072;14.474;2022-09-09T13:35:28;23.50;93.90
44607;DHT22;30315;46.072;14.474;2022-09-09T13:37:56;23.60;92.80
44607;DHT22;30315;46.072;14.474;2022-09-09T13:40:23;23.80;93.10
44607;DHT22;30315;46.072;14.474;2022-09-09T13:42:56;23.80;93.30
44607;DHT22;30315;46.072;14.474;2022-09-09T13:45:25;24.10;93.20
44607;DHT22;30315;46.072;14.474;2022-09-09T13:47:55;24.10;92.80
44607;DHT22;30315;46.072;14.474;2022-09-09T13:50:24;24.10;91.80
44607;DHT22;30315;46.072;14.474;2022-09-09T13:53:17;24.00;91.10
44607;DHT22;30315;46.072;14.474;2022-09-09T13:55:58;23.80;90.80
44607;DHT22;30315;46.072;14.474;2022-09-09T13:58:34;23.80;90.50
44607;DHT22;30315;46.072;14.474;2022-09-09T14:01:05;23.50;90.60
44607;DHT22;30315;46.072;14.474;2022-09-09T14:03:32;23.90;90.90
44607;DHT22;30315;46.072;14.474;2022-09-09T14:06:10;23.50;90.80
44607;DHT22;30315;46.072;14.474;2022-09-09T14:09:21;23.40;90.80
44607;DHT22;30315;46.072;14.474;2022-09-09T14:11:49;23.30;90.70
44607;DHT22;30315;46.072;14.474;2022-09-09T14:14:18;23.30;90.10
44607;DHT22;30315;46.072;14.474;2022-09-09T14:16:46;23.10;89.80
44607;DHT22;30315;46.072;14.474;2022-09-09T14:19:17;23.00;90.20
44607;DHT22;30315;46.072;14.474;2022-09-09T14:21:45;23.00;90.70
44607;DHT22;30315;46.072;14.474;2022-09-09T14:24:15;23.00;90.70
44607;DHT22;30315;46.072;14.474;2022-09-09T14:26:43;23.00;91.00
44607;DHT22;30315;46.072;14.474;2022-09-09T14:29:19;23.10;91.60
44607;DHT22;30315;46.072;14.474;2022-09-09T14:32:16;23.10;91.60
44607;DHT22;30315;46.072;14.474;2022-09-09T14:34:46;23.10;90.70
44607;DHT22;30315;46.072;14.474;2022-09-09T14:37:18;23.10;90.40
44607;DHT22;30315;46.072;14.474;2022-09-09T14:40:52;23.00;90.70
44607;DHT22;30315;46.072;14.474;2022-09-09T14:43:16;23.00;90.60
44607;DHT22;30315;46.072;14.474;2022-09-09T14:45:44;23.00;89.80
44607;DHT22;30315;46.072;14.474;2022-09-09T14:48:37;22.90;90.10
44607;DHT22;30315;46.072;14.474;2022-09-09T14:51:27;22.90;90.60
44607;DHT22;30315;46.072;14.474;2022-09-09T14:54:42;23.00;90.70
44607;DHT22;30315;46.072;14.474;2022-09-09T14:57:12;22.90;91.00
44607;DHT22;30315;46.072;14.474;2022-09-09T14:59:42;23.00;90.50
44607;DHT22;30315;46.072;14.474;2022-09-09T15:02:19;23.00;90.60
44607;DHT22;30315;46.072;14.474;2022-09-09T15:04:58;23.00;90.20
44607;DHT22;30315;46.072;14.474;2022-09-09T15:07:33;23.10;89.50
44607;DHT22;30315;46.072;14.474;2022-09-09T15:14:20;23.10;88.40
44607;DHT22;30315;46.072;14.474;2022-09-09T16:16:57;22.60;90.40
44607;DHT22;30315;46.072;14.474;2022-09-09T16:19:28;22.60;90.50
44607;DHT22;30315;46.072;14.474;2022-09-09T16:21:58;22.60;90.60
44607;DHT22;30315;46.072;14.474;2022-09-09T16:24:27;22.60;90.70
44607;DHT22;30315;46.072;14.474;2022-09-09T16:26:58;22.30;90.30
44607;DHT22;30315;46.072;14.474;2022-09-09T16:29:33;22.50;90.30
44607;DHT22;30315;46.072;14.474;2022-09-09T16:32:04;22.50;90.30
44607;DHT22;30315;46.072;14.474;2022-09-09T16:34:38;22.50;90.60
44607;DHT22;30315;46.072;14.474;2022-09-09T16:37:05;22.50;90.80
44607;DHT22;30315;46.072;14.474;2022-09-09T16:39:32;22.40;90.80
44607;DHT22;30315;46.072;14.474;2022-09-09T16:41:59;22.60;90.80
44607;DHT22;30315;46.072;14.474;2022-09-09T16:44:26;22.30;90.70
44607;DHT22;30315;46.072;14.474;2022-09-09T16:46:54;22.30;90.80
44607;DHT22;30315;46.072;14.474;2022-09-09T16:49:26;22.10;90.70
44607;DHT22;30315;46.072;14.474;2022-09-09T16:51:56;22.20;91.10
44607;DHT22;30315;46.072;14.474;2022-09-09T16:54:23;22.20;91.30
44607;DHT22;30315;46.072;14.474;2022-09-09T16:56:52;22.10;91.50
44607;DHT22;30315;46.072;14.474;2022-09-09T16:59:20;22.10;92.00
44607;DHT22;30315;46.072;14.474;2022-09-09T17:01:49;22.40;92.30
44607;DHT22;30315;46.072;14.474;2022-09-09T17:04:26;22.00;92.00
44607;DHT22;30315;46.072;14.474;2022-09-09T17:06:55;21.50;91.80
44607;DHT22;30315;46.072;14.474;2022-09-09T17:09:27;21.90;92.10
44607;DHT22;30315;46.072;14.474;2022-09-09T17:11:56;21.80;92.20
44607;DHT22;30315;46.072;14.474;2022-09-09T17:14:24;22.10;92.80
44607;DHT22;30315;46.072;14.474;2022-09-09T17:16:51;21.80;92.80
44607;DHT22;30315;46.072;14.474;2022-09-09T17:19:17;21.80;92.40
44607;DHT22;30315;46.072;14.474;2022-09-09T17:21:44;21.70;92.30
44607;DHT22;30315;46.072;14.474;2022-09-09T17:24:33;21.90;92.40
44607;DHT22;30315;46.072;14.474;2022-09-09T17:27:01;21.60;92.70
44607;DHT22;30315;46.072;14.474;2022-09-09T17:29:28;21.60;93.10
44607;DHT22;30315;46.072;14.474;2022-09-09T17:31:55;21.60;93.40
44607;DHT22;30315;46.072;14.474;2022-09-09T17:34:23;21.60;93.50
44607;DHT22;30315;46.072;14.474;2022-09-09T17:36:51;21.50;93.10
44607;DHT22;30315;46.072;14.474;2022-09-09T17:39:18;21.50;92.70
44607;DHT22;30315;46.072;14.474;2022-09-09T17:41:45;21.40;92.70
44607;DHT22;30315;46.072;14.474;2022-09-09T17:44:12;21.40;92.70
44607;DHT22;30315;46.072;14.474;2022-09-09T17:46:40;21.30;92.60
44607;DHT22;30315;46.072;14.474;2022-09-09T17:49:08;21.40;92.80
44607;DHT22;30315;46.072;14.474;2022-09-09T17:51:35;21.40;93.20
44607;DHT22;30315;46.072;14.474;2022-09-09T17:54:04;21.40;93.30
44607;DHT22;30315;46.072;14.474;2022-09-09T17:56:33;21.40;93.10
44607;DHT22;30315;46.072;14.474;2022-09-09T17:59:01;21.00;92.80
44607;DHT22;30315;46.072;14.474;2022-09-09T18:01:29;21.40;93.00
44607;DHT22;30315;46.072;14.474;2022-09-09T18:04:00;21.20;93.10
44607;DHT22;30315;46.072;14.474;2022-09-09T18:06:28;21.80;93.60
44607;DHT22;30315;46.072;14.474;2022-09-09T18:09:00;21.40;93.50
44607;DHT22;30315;46.072;14.474;2022-09-09T18:11:29;21.40;93.70
44607;DHT22;30315;46.072;14.474;2022-09-09T18:13:58;21.40;93.80
44607;DHT22;30315;46.072;14.474;2022-09-09T18:16:30;21.50;94.00
44607;DHT22;30315;46.072;14.474;2022-09-09T18:18:57;21.40;94.30
44607;DHT22;30315;46.072;14.474;2022-09-09T18:21:25;21.40;94.10
44607;DHT22;30315;46.072;14.474;2022-09-09T18:23:53;21.40;94.10
44607;DHT22;30315;46.072;14.474;2022-09-09T18:26:23;21.40;94.10
44607;DHT22;30315;46.072;14.474;2022-09-09T18:28:57;21.40;94.40
44607;DHT22;30315;46.072;14.474;2022-09-09T18:31:27;21.40;94.50
44607;DHT22;30315;46.072;14.474;2022-09-09T18:33:55;21.30;94.50
44607;DHT22;30315;46.072;14.474;2022-09-09T18:36:23;21.40;94.40
44607;DHT22;30315;46.072;14.474;2022-09-09T18:38:51;21.40;94.40
44607;DHT22;30315;46.072;14.474;2022-09-09T18:41:31;21.40;94.30
44607;DHT22;30315;46.072;14.474;2022-09-09T18:44:02;21.40;94.20
44607;DHT22;30315;46.072;14.474;2022-09-09T18:46:32;21.40;94.40
44607;DHT22;30315;46.072;14.474;2022-09-09T18:49:00;21.40;94.50
44607;DHT22;30315;46.072;14.474;2022-09-09T18:51:28;21.60;94.70
44607;DHT22;30315;46.072;14.474;2022-09-09T18:53:59;21.30;94.70
44607;DHT22;30315;46.072;14.474;2022-09-09T18:56:27;21.40;94.90
44607;DHT22;30315;46.072;14.474;2022-09-09T18:59:03;21.40;94.80
44607;DHT22;30315;46.072;14.474;2022-09-09T19:01:36;21.60;94.60